createdAt,value
2019-03-15T00:00:41.993Z,74.61
2019-03-15T00:03:10.659Z,75.18
2019-03-15T00:05:39.312Z,74.55
2019-03-15T00:08:07.953Z,74.80
2019-03-15T00:10:36.651Z,74.73
2019-03-15T00:13:05.195Z,74.86
2019-03-15T00:15:34.109Z,75.24
2019-03-15T00:18:02.632Z,75.40
2019-03-15T00:20:31.160Z,75.53
2019-03-15T00:23:00.009Z,74.82
2019-03-15T00:25:28.795Z,74.83
2019-03-15T00:27:57.332Z,74.58
2019-03-15T00:30:25.920Z,74.60
2019-03-15T00:32:54.458Z,74.38
2019-03-15T00:35:23.096Z,74.35
2019-03-15T00:37:51.676Z,74.35
2019-03-15T00:40:20.249Z,74.72
2019-03-15T00:42:48.926Z,74.48
2019-03-15T00:45:17.493Z,74.50
2019-03-15T00:47:46.045Z,74.34
2019-03-15T00:50:14.677Z,73.88
2019-03-15T00:52:43.333Z,73.64
2019-03-15T00:55:11.986Z,73.95
2019-03-15T00:57:40.638Z,73.65
2019-03-15T01:00:10.954Z,73.93
2019-03-15T01:02:39.599Z,73.86
2019-03-15T01:05:08.475Z,74.05
2019-03-15T01:07:37.121Z,74.36
2019-03-15T01:10:05.888Z,74.58
2019-03-15T01:12:34.542Z,74.17
2019-03-15T01:15:03.769Z,74.16
2019-03-15T01:17:32.297Z,74.11
2019-03-15T01:20:00.937Z,74.84
2019-03-15T01:22:29.703Z,74.83
2019-03-15T01:24:58.357Z,74.82
2019-03-15T01:27:26.882Z,74.82
2019-03-15T01:29:55.666Z,75.15
2019-03-15T01:32:24.221Z,74.75
2019-03-15T01:34:52.749Z,75.24
2019-03-15T01:37:21.612Z,75.42
2019-03-15T01:39:50.317Z,75.29
2019-03-15T01:42:18.956Z,75.83
2019-03-15T01:44:47.525Z,75.50
2019-03-15T01:47:16.268Z,75.53
2019-03-15T01:49:44.985Z,75.35
2019-03-15T01:52:13.544Z,75.13
2019-03-15T01:54:42.341Z,74.93
2019-03-15T01:57:10.975Z,74.83
2019-03-15T01:59:39.765Z,74.09
2019-03-15T02:02:08.302Z,74.35
2019-03-15T02:04:36.939Z,74.08
2019-03-15T02:07:05.644Z,74.29
2019-03-15T02:09:34.212Z,74.11
2019-03-15T02:12:02.865Z,74.44
2019-03-15T02:14:31.410Z,74.01
2019-03-15T02:17:00.215Z,73.87
2019-03-15T02:19:29.168Z,73.88
2019-03-15T02:21:57.904Z,73.57
2019-03-15T02:24:26.581Z,73.56
2019-03-15T02:26:55.118Z,73.50
2019-03-15T02:29:23.992Z,73.57
2019-03-15T02:31:52.643Z,73.89
2019-03-15T02:34:21.151Z,74.18
2019-03-15T02:36:49.690Z,74.07
2019-03-15T02:39:18.206Z,74.02
2019-03-15T02:41:46.744Z,74.19
2019-03-15T02:44:15.506Z,74.03
2019-03-15T02:46:44.050Z,74.09
2019-03-15T02:49:12.693Z,73.97
2019-03-15T02:51:41.588Z,73.48
2019-03-15T02:54:10.473Z,73.12
2019-03-15T02:56:39.021Z,73.58
2019-03-15T02:59:07.568Z,73.94
2019-03-15T03:01:36.202Z,74.11
2019-03-15T03:04:04.743Z,73.85
2019-03-15T03:06:33.312Z,74.29
2019-03-15T03:09:01.982Z,74.68
2019-03-15T03:11:30.500Z,74.86
2019-03-15T03:13:59.219Z,74.36
2019-03-15T03:16:27.852Z,74.58
2019-03-15T03:18:56.473Z,74.66
2019-03-15T03:21:25.080Z,74.43
2019-03-15T03:23:53.619Z,74.37
2019-03-15T03:26:22.147Z,73.61
2019-03-15T03:28:50.695Z,74.18
2019-03-15T03:31:19.212Z,73.95
2019-03-15T03:33:47.722Z,73.92
2019-03-15T03:36:16.256Z,73.39
2019-03-15T03:38:44.814Z,72.60
2019-03-15T03:41:13.361Z,73.42
2019-03-15T03:43:41.897Z,73.73
2019-03-15T03:46:10.539Z,73.89
2019-03-15T03:48:39.091Z,73.95
2019-03-15T03:51:08.661Z,73.43
2019-03-15T03:53:37.351Z,73.85
2019-03-15T03:56:06.019Z,74.24
2019-03-15T03:58:34.652Z,74.10
2019-03-15T04:01:03.176Z,73.56
2019-03-15T04:03:31.861Z,73.88
2019-03-15T04:06:00.821Z,73.82
2019-03-15T04:08:29.413Z,73.89
2019-03-15T04:10:57.951Z,73.88
2019-03-15T04:13:26.508Z,73.52
2019-03-15T04:15:55.153Z,73.66
2019-03-15T04:18:23.798Z,73.78
2019-03-15T04:20:52.376Z,74.38
2019-03-15T04:23:21.011Z,74.14
2019-03-15T04:25:49.547Z,75.17
2019-03-15T04:28:18.210Z,75.17
2019-03-15T04:30:46.721Z,74.36
2019-03-15T04:33:15.263Z,73.92
2019-03-15T04:35:43.803Z,74.48
2019-03-15T04:38:12.348Z,74.32
2019-03-15T04:40:40.984Z,74.04
2019-03-15T04:43:09.550Z,74.57
2019-03-15T04:45:38.186Z,75.02
2019-03-15T04:48:06.724Z,75.02
2019-03-15T04:50:35.397Z,75.13
2019-03-15T04:53:04.018Z,74.98
2019-03-15T04:55:32.641Z,75.32
2019-03-15T04:58:01.203Z,76.08
2019-03-15T05:00:29.835Z,76.32
2019-03-15T05:02:58.369Z,76.21
2019-03-15T05:05:26.926Z,76.24
2019-03-15T05:07:55.494Z,76.68
2019-03-15T05:10:24.140Z,76.61
2019-03-15T05:12:52.815Z,77.22
2019-03-15T05:15:21.364Z,76.39
2019-03-15T05:17:49.899Z,76.49
2019-03-15T05:20:21.047Z,76.64
2019-03-15T05:22:48.900Z,76.45
2019-03-15T05:25:17.543Z,76.47
2019-03-15T05:27:46.197Z,76.55
2019-03-15T05:30:14.713Z,76.39
2019-03-15T05:32:43.250Z,76.50
2019-03-15T05:35:11.980Z,76.50
2019-03-15T05:37:40.504Z,76.41
2019-03-15T05:40:09.272Z,76.19
2019-03-15T05:42:37.822Z,76.14
2019-03-15T05:45:07.570Z,75.92
2019-03-15T05:47:36.133Z,75.98
2019-03-15T05:50:06.164Z,76.24
2019-03-15T05:52:34.790Z,76.38
2019-03-15T05:55:04.259Z,76.84
2019-03-15T05:57:33.041Z,77.09
2019-03-15T06:00:01.595Z,77.71
2019-03-15T06:02:30.128Z,77.53
2019-03-15T06:04:58.668Z,78.47
2019-03-15T06:07:27.197Z,78.29
2019-03-15T06:09:55.737Z,78.71
2019-03-15T06:12:24.404Z,78.70
2019-03-15T06:14:52.937Z,78.50
2019-03-15T06:17:21.484Z,78.60
2019-03-15T06:19:50.110Z,78.11
2019-03-15T06:22:18.657Z,78.18
2019-03-15T06:24:47.283Z,78.02
2019-03-15T06:27:15.864Z,78.08
2019-03-15T06:29:44.401Z,78.41
2019-03-15T06:32:13.028Z,78.99
2019-03-15T06:34:41.620Z,79.41
2019-03-15T06:37:10.156Z,79.62
2019-03-15T06:39:38.692Z,80.13
2019-03-15T06:42:07.357Z,80.70
2019-03-15T06:44:37.513Z,80.86
2019-03-15T06:47:06.328Z,81.59
2019-03-15T06:49:35.002Z,82.65
2019-03-15T06:52:03.856Z,82.96
2019-03-15T06:54:32.400Z,83.38
2019-03-15T06:57:01.055Z,83.64
2019-03-15T06:59:29.625Z,84.65
2019-03-15T07:01:58.251Z,85.27
2019-03-15T07:04:26.929Z,85.39
2019-03-15T07:06:55.486Z,85.95
2019-03-15T07:09:24.243Z,85.89
2019-03-15T07:11:53.046Z,86.29
2019-03-15T07:14:21.696Z,86.80
2019-03-15T07:16:50.339Z,87.09
2019-03-15T07:19:26.348Z,87.38
2019-03-15T07:21:50.894Z,87.72
2019-03-15T07:24:25.235Z,87.91
2019-03-15T07:26:50.131Z,88.35
2019-03-15T07:29:19.131Z,88.52
2019-03-15T07:31:47.855Z,88.90
2019-03-15T07:34:16.393Z,88.96
2019-03-15T07:36:44.938Z,89.40
2019-03-15T07:39:13.600Z,89.27
2019-03-15T07:41:42.138Z,89.45
2019-03-15T07:44:10.783Z,89.65
2019-03-15T07:46:39.373Z,90.01
2019-03-15T07:49:08.041Z,90.15
2019-03-15T07:51:36.681Z,90.54
2019-03-15T07:54:05.319Z,90.67
2019-03-15T07:56:34.060Z,90.54
2019-03-15T07:59:02.793Z,90.66
2019-03-15T08:01:31.461Z,90.96
2019-03-15T08:04:00.118Z,91.08
2019-03-15T08:06:34.775Z,91.07
2019-03-15T08:08:59.189Z,91.28
2019-03-15T08:11:27.742Z,91.19
2019-03-15T08:13:56.288Z,91.27
2019-03-15T08:16:24.856Z,91.35
2019-03-15T08:18:53.402Z,91.55
2019-03-15T08:21:22.822Z,91.35
2019-03-15T08:23:51.503Z,91.52
2019-03-15T08:26:20.056Z,91.53
2019-03-15T08:28:48.706Z,91.74
2019-03-15T08:31:17.491Z,91.71
2019-03-15T08:33:46.012Z,91.54
2019-03-15T08:36:14.553Z,91.75
2019-03-15T08:38:47.883Z,91.91
2019-03-15T08:41:13.633Z,92.03
2019-03-15T08:43:42.186Z,92.14
2019-03-15T08:46:10.868Z,92.50
2019-03-15T08:48:39.476Z,92.50
2019-03-15T08:51:10.640Z,92.47
2019-03-15T08:53:38.482Z,92.32
2019-03-15T08:56:07.012Z,92.41
2019-03-15T08:58:35.546Z,92.51
2019-03-15T09:01:04.212Z,92.56
2019-03-15T09:03:34.310Z,92.57
2019-03-15T09:06:03.203Z,92.39
2019-03-15T09:08:31.753Z,92.68
2019-03-15T09:11:00.307Z,92.80
2019-03-15T09:13:28.891Z,92.81
2019-03-15T09:15:57.450Z,92.88
2019-03-15T09:18:25.987Z,92.75
2019-03-15T09:20:54.522Z,92.79
2019-03-15T09:23:23.056Z,92.87
2019-03-15T09:25:51.709Z,92.80
2019-03-15T09:28:20.434Z,92.82
2019-03-15T09:30:48.974Z,92.75
2019-03-15T09:33:17.505Z,92.78
2019-03-15T09:35:46.061Z,92.93
2019-03-15T09:38:14.625Z,92.90
2019-03-15T09:40:43.180Z,92.88
2019-03-15T09:43:11.729Z,92.95
2019-03-15T09:45:40.297Z,92.88
2019-03-15T09:48:08.965Z,92.98
2019-03-15T09:50:50.465Z,92.94
2019-03-15T09:53:08.377Z,92.99
2019-03-15T09:55:36.923Z,93.07
2019-03-15T09:58:05.474Z,93.20
2019-03-15T10:00:34.041Z,93.25
2019-03-15T10:03:02.682Z,93.29
2019-03-15T10:05:31.348Z,93.21
2019-03-15T10:07:59.906Z,93.38
2019-03-15T10:10:28.607Z,93.39
2019-03-15T10:13:05.663Z,93.32
2019-03-15T10:15:27.646Z,93.52
2019-03-15T10:17:56.283Z,93.35
2019-03-15T10:20:24.820Z,93.37
2019-03-15T10:23:05.624Z,93.28
2019-03-15T10:25:23.884Z,93.39
2019-03-15T10:27:52.423Z,93.77
2019-03-15T10:30:21.169Z,93.89
2019-03-15T10:32:49.828Z,93.93
2019-03-15T10:35:18.363Z,93.74
2019-03-15T10:37:46.957Z,93.60
2019-03-15T10:40:15.684Z,93.66
2019-03-15T10:42:44.345Z,93.80
2019-03-15T10:45:13.012Z,93.82
2019-03-15T10:47:42.621Z,93.88
2019-03-15T10:50:11.704Z,93.88
2019-03-15T10:52:40.387Z,93.82
2019-03-15T10:55:09.486Z,93.86
2019-03-15T10:57:38.229Z,93.66
2019-03-15T11:00:09.107Z,93.66
2019-03-15T11:02:37.768Z,93.61
2019-03-15T11:05:07.195Z,93.48
2019-03-15T11:07:35.767Z,93.49
2019-03-15T11:10:05.141Z,93.40
2019-03-15T11:12:33.679Z,93.06
2019-03-15T11:15:02.467Z,92.48
2019-03-15T11:17:31.031Z,92.40
2019-03-15T11:19:59.643Z,92.41
2019-03-15T11:22:28.239Z,92.30
2019-03-15T11:24:56.782Z,92.58
2019-03-15T11:27:25.356Z,92.47
2019-03-15T11:29:54.051Z,92.44
2019-03-15T11:32:22.654Z,92.35
2019-03-15T11:34:51.362Z,91.88
2019-03-15T11:37:19.980Z,91.61
2019-03-15T11:39:48.531Z,91.44
2019-03-15T11:42:17.128Z,91.33
2019-03-15T11:44:45.719Z,91.17
2019-03-15T11:47:14.378Z,90.57
2019-03-15T11:49:42.924Z,90.45
2019-03-15T11:52:11.808Z,90.64
2019-03-15T11:54:40.462Z,90.41
2019-03-15T11:57:09.108Z,90.42
2019-03-15T11:59:38.229Z,90.67
2019-03-15T12:02:06.859Z,90.24
2019-03-15T12:04:35.531Z,90.36
2019-03-15T12:07:04.124Z,90.82
2019-03-15T12:09:32.761Z,91.02
2019-03-15T12:12:01.314Z,91.40
2019-03-15T12:14:40.415Z,91.69
2019-03-15T12:17:00.568Z,91.62
2019-03-15T12:19:29.096Z,90.93
2019-03-15T12:22:06.103Z,90.86
2019-03-15T12:24:28.267Z,90.38
2019-03-15T12:26:56.839Z,89.20
2019-03-15T12:29:25.505Z,88.56
2019-03-15T12:31:54.052Z,88.80
2019-03-15T12:34:22.592Z,88.90
2019-03-15T12:36:51.130Z,88.03
2019-03-15T12:39:19.795Z,87.59
2019-03-15T12:41:48.342Z,88.01
2019-03-15T12:44:17.027Z,87.93
2019-03-15T12:46:45.575Z,87.88
2019-03-15T12:49:14.114Z,88.37
2019-03-15T12:51:42.681Z,87.89
2019-03-15T12:54:11.274Z,86.94
2019-03-15T12:56:52.940Z,86.89
2019-03-15T12:59:10.397Z,86.96
2019-03-15T13:01:39.189Z,86.17
2019-03-15T13:04:08.140Z,86.34
2019-03-15T13:06:37.189Z,86.36
2019-03-15T13:09:05.903Z,86.32
2019-03-15T13:11:34.873Z,85.36
2019-03-15T13:14:03.785Z,85.55
2019-03-15T13:16:32.304Z,84.83
2019-03-15T13:19:00.962Z,84.64
2019-03-15T13:21:29.505Z,84.30
2019-03-15T13:23:58.054Z,83.10
2019-03-15T13:26:28.958Z,82.70
2019-03-15T13:28:57.058Z,82.22
2019-03-15T13:31:25.589Z,81.95
2019-03-15T13:33:54.127Z,80.51
2019-03-15T13:36:22.731Z,80.09
2019-03-15T13:38:51.363Z,79.51
2019-03-15T13:41:19.900Z,79.21
2019-03-15T13:43:48.566Z,79.61
2019-03-15T13:46:17.135Z,78.78
2019-03-15T13:48:45.781Z,78.91
2019-03-15T13:51:14.444Z,78.93
2019-03-15T13:53:42.980Z,79.02
2019-03-15T13:56:11.527Z,79.29
2019-03-15T13:58:40.094Z,81.15
2019-03-15T14:01:08.628Z,81.88
2019-03-15T14:03:37.167Z,83.97
2019-03-15T14:06:05.736Z,85.19
2019-03-15T14:08:34.280Z,86.41
2019-03-15T14:11:03.182Z,86.30
2019-03-15T14:13:31.727Z,86.72
2019-03-15T14:16:01.719Z,86.72
2019-03-15T14:18:30.478Z,86.70
2019-03-15T14:20:59.138Z,85.85
2019-03-15T14:23:27.670Z,85.35
2019-03-15T14:25:56.206Z,84.32
2019-03-15T14:28:24.780Z,83.05
2019-03-15T14:30:53.319Z,82.35
2019-03-15T14:33:21.879Z,82.64
2019-03-15T14:35:50.521Z,81.22
2019-03-15T14:38:19.073Z,81.23
2019-03-15T14:40:48.124Z,81.08
2019-03-15T14:43:16.791Z,80.93
2019-03-15T14:45:45.577Z,80.82
2019-03-15T14:48:14.125Z,81.16
2019-03-15T14:50:42.654Z,81.76
2019-03-15T14:53:11.208Z,80.84
2019-03-15T14:55:39.753Z,81.36
2019-03-15T14:58:08.333Z,82.27
2019-03-15T15:00:36.984Z,82.37
2019-03-15T15:03:05.498Z,82.40
2019-03-15T15:05:34.178Z,81.54
2019-03-15T15:08:02.917Z,81.68
2019-03-15T15:10:31.559Z,81.70
2019-03-15T15:13:00.136Z,80.89
2019-03-15T15:15:28.768Z,81.12
2019-03-15T15:17:57.285Z,81.92
2019-03-15T15:20:25.852Z,82.49
2019-03-15T15:22:54.346Z,82.43
2019-03-15T15:25:23.011Z,82.93
2019-03-15T15:28:03.873Z,83.03
2019-03-15T15:30:22.218Z,83.95
2019-03-15T15:32:50.736Z,83.93
2019-03-15T15:35:19.400Z,84.72
2019-03-15T15:37:47.919Z,84.84
2019-03-15T15:40:16.773Z,85.55
2019-03-15T15:42:45.453Z,85.94
2019-03-15T15:45:14.199Z,86.64
2019-03-15T15:47:42.858Z,87.06
2019-03-15T15:50:11.906Z,87.57
2019-03-15T15:52:40.620Z,88.03
2019-03-15T15:55:09.405Z,88.96
2019-03-15T15:57:37.967Z,89.51
2019-03-15T16:00:08.297Z,90.15
2019-03-15T16:02:36.959Z,90.67
2019-03-15T16:05:08.562Z,90.97
2019-03-15T16:07:36.695Z,91.34
2019-03-15T16:10:06.743Z,91.44
2019-03-15T16:12:35.514Z,91.30
2019-03-15T16:15:05.247Z,91.45
2019-03-15T16:17:33.864Z,92.29
2019-03-15T16:20:02.828Z,91.51
2019-03-15T16:22:31.487Z,90.78
2019-03-15T16:25:00.032Z,89.77
2019-03-15T16:27:28.717Z,90.20
2019-03-15T16:29:57.487Z,91.06
2019-03-15T16:32:26.103Z,91.75
2019-03-15T16:34:54.661Z,91.93
2019-03-15T16:37:23.411Z,91.81
2019-03-15T16:42:15.772Z,90.98
2019-03-15T16:44:44.338Z,91.03
2019-03-15T16:47:13.069Z,91.23
2019-03-15T16:49:41.621Z,91.68
2019-03-15T16:52:10.705Z,91.80
2019-03-15T16:54:39.356Z,92.02
2019-03-15T16:57:07.914Z,91.98
2019-03-15T16:59:36.472Z,91.41
2019-03-15T17:02:05.143Z,91.54
2019-03-15T17:04:34.065Z,91.58
2019-03-15T17:07:02.882Z,91.37
2019-03-15T17:09:31.434Z,88.94
2019-03-15T17:12:00.086Z,87.90
2019-03-15T17:14:29.057Z,88.02
2019-03-15T17:16:57.751Z,87.78
2019-03-15T17:19:26.288Z,86.68
2019-03-15T17:21:54.871Z,85.68
2019-03-15T17:24:23.593Z,85.67
2019-03-15T17:26:52.257Z,83.73
2019-03-15T17:29:23.996Z,85.12
2019-03-15T17:31:52.688Z,84.39
2019-03-15T17:34:21.249Z,84.04
2019-03-15T17:36:49.823Z,84.70
2019-03-15T17:39:18.386Z,84.12
2019-03-15T17:41:46.935Z,83.61
2019-03-15T17:44:15.507Z,83.49
2019-03-15T17:46:44.164Z,84.52
2019-03-15T17:49:12.703Z,85.18
2019-03-15T17:51:41.369Z,85.19
2019-03-15T17:54:10.018Z,85.24
2019-03-15T17:56:38.683Z,84.39
2019-03-15T17:59:12.244Z,85.22
2019-03-15T18:01:37.838Z,85.64
2019-03-15T18:04:06.590Z,85.33
2019-03-15T18:06:35.288Z,86.03
2019-03-15T18:09:04.885Z,85.21
2019-03-15T18:11:33.449Z,85.78
2019-03-15T18:14:02.220Z,85.69
2019-03-15T18:16:30.787Z,85.40
2019-03-15T18:18:59.432Z,85.24
2019-03-15T18:21:28.102Z,85.76
2019-03-15T18:23:56.773Z,86.54
2019-03-15T18:26:25.339Z,86.75
2019-03-15T18:28:54.000Z,87.15
2019-03-15T18:31:22.660Z,86.98
2019-03-15T18:33:51.230Z,87.14
2019-03-15T18:36:20.192Z,86.86
2019-03-15T18:38:48.722Z,86.83
2019-03-15T18:41:17.442Z,86.90
2019-03-15T18:43:46.008Z,86.21
2019-03-15T18:46:14.555Z,86.08
2019-03-15T18:48:43.219Z,86.43
2019-03-15T18:51:11.897Z,85.84
2019-03-15T18:53:40.529Z,85.68
2019-03-15T18:56:09.100Z,85.40
2019-03-15T18:58:37.641Z,85.07
2019-03-15T19:01:06.338Z,84.58
2019-03-15T19:03:34.878Z,84.39
2019-03-15T19:06:03.718Z,84.30
2019-03-15T19:08:32.259Z,84.05
2019-03-15T19:11:00.926Z,84.16
2019-03-15T19:13:29.491Z,83.02
2019-03-15T19:15:58.231Z,83.12
2019-03-15T19:18:26.985Z,82.98
2019-03-15T19:20:55.566Z,82.90
2019-03-15T19:23:24.197Z,81.92
2019-03-15T19:25:52.747Z,81.81
2019-03-15T19:28:21.302Z,81.87
2019-03-15T19:30:49.854Z,82.33
2019-03-15T19:33:18.415Z,81.13
2019-03-15T19:35:47.026Z,81.00
2019-03-15T19:38:15.686Z,80.88
2019-03-15T19:40:44.232Z,80.38
2019-03-15T19:43:12.797Z,79.57
2019-03-15T19:45:41.568Z,79.33
2019-03-15T19:48:10.131Z,79.16
2019-03-15T19:50:39.015Z,78.97
2019-03-15T19:53:07.742Z,78.11
2019-03-15T19:55:36.491Z,77.92
2019-03-15T19:58:05.414Z,76.89
2019-03-15T20:00:33.946Z,76.84
2019-03-15T20:03:02.711Z,76.01
2019-03-15T20:05:31.481Z,76.24
2019-03-15T20:08:00.255Z,76.00
2019-03-15T20:10:29.013Z,76.21
2019-03-15T20:12:57.587Z,76.07
2019-03-15T20:15:26.130Z,75.88
2019-03-15T20:17:54.673Z,76.21
2019-03-15T20:20:23.260Z,76.61
2019-03-15T20:22:52.017Z,76.80
2019-03-15T20:25:20.652Z,76.32
2019-03-15T20:27:49.417Z,76.57
2019-03-15T20:30:21.564Z,76.49
2019-03-15T20:32:48.731Z,76.49
2019-03-15T20:35:17.383Z,76.65
2019-03-15T20:37:46.111Z,76.38
2019-03-15T20:40:14.953Z,76.07
2019-03-15T20:42:43.762Z,75.33
2019-03-15T20:45:13.202Z,75.62
2019-03-15T20:47:41.780Z,75.83
2019-03-15T20:50:10.976Z,75.71
2019-03-15T20:52:39.614Z,75.06
2019-03-15T20:55:08.405Z,75.23
2019-03-15T20:57:37.220Z,75.45
2019-03-15T21:00:07.408Z,75.01
2019-03-15T21:02:35.955Z,74.80
2019-03-15T21:05:07.853Z,74.17
2019-03-15T21:07:35.206Z,74.09
2019-03-15T21:10:03.952Z,73.98
2019-03-15T21:12:32.625Z,73.37
2019-03-15T21:15:01.366Z,72.83
2019-03-15T21:17:29.899Z,72.54
2019-03-15T21:19:58.474Z,72.63
2019-03-15T21:22:27.107Z,72.20
2019-03-15T21:24:55.759Z,72.25
2019-03-15T21:27:24.333Z,71.84
2019-03-15T21:29:52.868Z,72.35
2019-03-15T21:32:21.481Z,71.91
2019-03-15T21:34:50.088Z,72.35
2019-03-15T21:37:18.609Z,71.42
2019-03-15T21:39:47.157Z,72.24
2019-03-15T21:42:15.833Z,71.61
2019-03-15T21:44:44.398Z,71.18
2019-03-15T21:47:12.923Z,70.86
2019-03-15T21:49:41.512Z,71.43
2019-03-15T21:52:10.048Z,71.12
2019-03-15T21:54:38.596Z,70.60
2019-03-15T21:57:07.255Z,70.23
2019-03-15T21:59:39.006Z,71.02
2019-03-15T22:02:06.578Z,69.80
2019-03-15T22:04:35.154Z,69.54
2019-03-15T22:07:03.785Z,69.20
2019-03-15T22:09:32.337Z,69.18
2019-03-15T22:12:00.885Z,69.11
2019-03-15T22:14:29.420Z,69.34
2019-03-15T22:16:57.949Z,69.22
2019-03-15T22:19:26.520Z,69.25
2019-03-15T22:21:55.051Z,68.82
2019-03-15T22:24:23.604Z,68.96
2019-03-15T22:26:52.256Z,68.86
2019-03-15T22:29:20.810Z,69.03
2019-03-15T22:31:49.340Z,69.26
2019-03-15T22:34:17.892Z,69.21
2019-03-15T22:36:46.490Z,69.44
2019-03-15T22:39:15.020Z,70.29
2019-03-15T22:41:43.596Z,70.14
2019-03-15T22:44:12.240Z,70.46
2019-03-15T22:46:40.897Z,70.73
2019-03-15T22:49:09.466Z,70.98
2019-03-15T22:51:38.028Z,70.50
2019-03-15T22:54:06.569Z,71.04
2019-03-15T22:56:35.128Z,71.17
2019-03-15T22:59:03.771Z,71.10
2019-03-15T23:01:32.399Z,71.03
2019-03-15T23:04:00.976Z,71.28
2019-03-15T23:06:29.494Z,71.10
2019-03-15T23:08:58.052Z,70.64
2019-03-15T23:11:26.631Z,70.70
2019-03-15T23:13:55.174Z,70.94
2019-03-15T23:16:23.703Z,71.37
2019-03-15T23:18:52.264Z,71.31
2019-03-15T23:21:20.801Z,71.15
2019-03-15T23:23:49.363Z,71.34
2019-03-15T23:26:17.934Z,71.46
2019-03-15T23:28:47.371Z,72.02
2019-03-15T23:31:16.219Z,72.48
2019-03-15T23:33:44.848Z,72.36
2019-03-15T23:36:13.366Z,72.45
2019-03-15T23:38:41.929Z,71.47
2019-03-15T23:41:10.481Z,71.64
2019-03-15T23:43:39.016Z,71.33
2019-03-15T23:46:07.685Z,71.86
2019-03-15T23:48:36.323Z,72.04
2019-03-15T23:51:04.966Z,71.94
2019-03-15T23:53:33.595Z,71.53
2019-03-15T23:56:02.254Z,71.98
2019-03-15T23:58:30.793Z,72.21
